sensor_id;sensor_type;location;lat;lon;timestamp;temperature;humidity
16477;DHT22;8349;50.928;6.376;2022-10-17T03:02:53;16.10;99.90
16477;DHT22;8349;50.928;6.376;2022-10-17T03:05:20;16.20;99.90
16477;DHT22;8349;50.928;6.376;2022-10-17T03:07:47;16.20;99.90
16477;DHT22;8349;50.928;6.376;2022-10-17T03:10:14;16.20;99.90
16477;DHT22;8349;50.928;6.376;2022-10-17T03:12:41;16.20;99.90
16477;DHT22;8349;50.928;6.376;2022-10-17T03:15:09;16.20;99.90
16477;DHT22;8349;50.928;6.376;2022-10-17T03:17:36;16.30;99.90
16477;DHT22;8349;50.928;6.376;2022-10-17T03:20:05;16.30;99.90
16477;DHT22;8349;50.928;6.376;2022-10-17T03:22:32;16.40;99.90
16477;DHT22;8349;50.928;6.376;2022-10-17T03:25:01;16.40;99.90
16477;DHT22;8349;50.928;6.376;2022-10-17T03:27:28;16.40;99.90
16477;DHT22;8349;50.928;6.376;2022-10-17T03:29:55;16.40;99.90
16477;DHT22;8349;50.928;6.376;2022-10-17T03:32:21;16.40;99.90
16477;DHT22;8349;50.928;6.376;2022-10-17T03:34:48;16.40;99.90
16477;DHT22;8349;50.928;6.376;2022-10-17T03:37:17;16.50;99.90
16477;DHT22;8349;50.928;6.376;2022-10-17T03:39:44;16.50;99.90
16477;DHT22;8349;50.928;6.376;2022-10-17T03:42:11;16.50;99.90
16477;DHT22;8349;50.928;6.376;2022-10-17T03:44:38;16.50;99.90
16477;DHT22;8349;50.928;6.376;2022-10-17T03:47:05;16.40;99.90
16477;DHT22;8349;50.928;6.376;2022-10-17T03:49:32;16.40;99.90
16477;DHT22;8349;50.928;6.376;2022-10-17T03:51:58;16.40;99.90
16477;DHT22;8349;50.928;6.376;2022-10-17T03:54:28;16.40;99.90
16477;DHT22;8349;50.928;6.376;2022-10-17T03:56:55;16.40;99.90
16477;DHT22;8349;50.928;6.376;2022-10-17T03:59:21;16.40;99.90
16477;DHT22;8349;50.928;6.376;2022-10-17T04:01:57;16.40;99.90
16477;DHT22;8349;50.928;6.376;2022-10-17T04:04:24;16.40;99.90
16477;DHT22;8349;50.928;6.376;2022-10-17T04:06:51;16.50;99.90
16477;DHT22;8349;50.928;6.376;2022-10-17T04:09:18;16.50;99.90
16477;DHT22;8349;50.928;6.376;2022-10-17T04:12:00;16.50;99.90
16477;DHT22;8349;50.928;6.376;2022-10-17T04:14:29;16.50;99.90
16477;DHT22;8349;50.928;6.376;2022-10-17T04:16:57;16.50;99.90
16477;DHT22;8349;50.928;6.376;2022-10-17T04:19:24;16.50;99.90
16477;DHT22;8349;50.928;6.376;2022-10-17T04:21:52;16.60;99.90
16477;DHT22;8349;50.928;6.376;2022-10-17T04:24:19;16.60;99.90
16477;DHT22;8349;50.928;6.376;2022-10-17T04:27:01;16.60;99.90
16477;DHT22;8349;50.928;6.376;2022-10-17T04:29:31;16.60;99.90
16477;DHT22;8349;50.928;6.376;2022-10-17T04:32:05;16.70;99.90
16477;DHT22;8349;50.928;6.376;2022-10-17T04:34:38;16.80;99.90
16477;DHT22;8349;50.928;6.376;2022-10-17T04:37:05;17.00;99.90
16477;DHT22;8349;50.928;6.376;2022-10-17T04:39:33;17.00;99.90
16477;DHT22;8349;50.928;6.376;2022-10-17T04:41:59;17.00;99.90
16477;DHT22;8349;50.928;6.376;2022-10-17T04:44:28;17.00;99.90
16477;DHT22;8349;50.928;6.376;2022-10-17T04:46:57;17.10;99.90
16477;DHT22;8349;50.928;6.376;2022-10-17T04:49:24;17.10;99.90
16477;DHT22;8349;50.928;6.376;2022-10-17T04:51:54;17.20;99.90
16477;DHT22;8349;50.928;6.376;2022-10-17T04:54:38;17.20;99.90
16477;DHT22;8349;50.928;6.376;2022-10-17T04:57:08;17.20;99.90
16477;DHT22;8349;50.928;6.376;2022-10-17T04:59:36;17.30;99.90
16477;DHT22;8349;50.928;6.376;2022-10-17T05:02:19;17.30;99.90
16477;DHT22;8349;50.928;6.376;2022-10-17T05:04:46;17.30;99.90
16477;DHT22;8349;50.928;6.376;2022-10-17T05:07:14;17.30;99.90
16477;DHT22;8349;50.928;6.376;2022-10-17T05:09:50;17.40;99.90
16477;DHT22;8349;50.928;6.376;2022-10-17T05:12:17;17.40;99.90
16477;DHT22;8349;50.928;6.376;2022-10-17T05:14:47;17.40;99.90
16477;DHT22;8349;50.928;6.376;2022-10-17T05:17:14;17.40;99.90
16477;DHT22;8349;50.928;6.376;2022-10-17T05:19:41;17.40;99.90
16477;DHT22;8349;50.928;6.376;2022-10-17T05:22:08;17.40;99.90
16477;DHT22;8349;50.928;6.376;2022-10-17T05:24:35;17.30;99.90
16477;DHT22;8349;50.928;6.376;2022-10-17T05:27:02;17.20;99.90
16477;DHT22;8349;50.928;6.376;2022-10-17T05:29:29;17.10;99.90
16477;DHT22;8349;50.928;6.376;2022-10-17T05:32:05;17.00;99.90
16477;DHT22;8349;50.928;6.376;2022-10-17T05:34:33;16.80;99.90
16477;DHT22;8349;50.928;6.376;2022-10-17T05:37:00;16.70;99.90
16477;DHT22;8349;50.928;6.376;2022-10-17T05:39:27;16.60;99.90
16477;DHT22;8349;50.928;6.376;2022-10-17T05:41:55;16.50;99.90
16477;DHT22;8349;50.928;6.376;2022-10-17T05:44:22;16.40;99.90
16477;DHT22;8349;50.928;6.376;2022-10-17T05:46:53;16.40;99.90
16477;DHT22;8349;50.928;6.376;2022-10-17T05:49:22;16.50;99.90
16477;DHT22;8349;50.928;6.376;2022-10-17T05:51:49;16.50;99.90
16477;DHT22;8349;50.928;6.376;2022-10-17T05:54:15;16.40;99.90
16477;DHT22;8349;50.928;6.376;2022-10-17T05:56:44;16.40;99.90
16477;DHT22;8349;50.928;6.376;2022-10-17T05:59:11;16.40;99.90
16477;DHT22;8349;50.928;6.376;2022-10-17T06:01:57;16.30;99.90
16477;DHT22;8349;50.928;6.376;2022-10-17T06:04:26;16.20;99.90
16477;DHT22;8349;50.928;6.376;2022-10-17T06:06:53;16.20;99.90
16477;DHT22;8349;50.928;6.376;2022-10-17T06:09:21;16.10;99.90
16477;DHT22;8349;50.928;6.376;2022-10-17T06:11:50;16.10;99.90
16477;DHT22;8349;50.928;6.376;2022-10-17T06:14:18;16.10;99.90
16477;DHT22;8349;50.928;6.376;2022-10-17T06:16:49;16.10;99.90
16477;DHT22;8349;50.928;6.376;2022-10-17T06:19:16;16.20;99.90
16477;DHT22;8349;50.928;6.376;2022-10-17T06:21:46;16.20;99.90
16477;DHT22;8349;50.928;6.376;2022-10-17T06:24:18;16.20;99.90
16477;DHT22;8349;50.928;6.376;2022-10-17T06:26:45;16.20;99.90
16477;DHT22;8349;50.928;6.376;2022-10-17T06:29:14;16.20;99.90
16477;DHT22;8349;50.928;6.376;2022-10-17T06:31:45;16.20;99.90
16477;DHT22;8349;50.928;6.376;2022-10-17T06:34:13;16.30;99.90
16477;DHT22;8349;50.928;6.376;2022-10-17T06:36:40;16.30;99.90
16477;DHT22;8349;50.928;6.376;2022-10-17T06:39:09;16.30;99.90
16477;DHT22;8349;50.928;6.376;2022-10-17T06:41:50;16.40;99.90
16477;DHT22;8349;50.928;6.376;2022-10-17T06:44:18;16.50;99.90
16477;DHT22;8349;50.928;6.376;2022-10-17T06:47:05;16.60;99.90
16477;DHT22;8349;50.928;6.376;2022-10-17T06:49:31;16.70;99.90
16477;DHT22;8349;50.928;6.376;2022-10-17T06:52:17;16.70;99.90
16477;DHT22;8349;50.928;6.376;2022-10-17T06:55:11;16.80;99.90
16477;DHT22;8349;50.928;6.376;2022-10-17T06:58:04;16.90;99.90
16477;DHT22;8349;50.928;6.376;2022-10-17T07:01:07;17.00;99.90
16477;DHT22;8349;50.928;6.376;2022-10-17T07:03:34;17.10;99.90
16477;DHT22;8349;50.928;6.376;2022-10-17T07:06:02;17.20;99.90
16477;DHT22;8349;50.928;6.376;2022-10-17T07:08:30;17.30;99.90
16477;DHT22;8349;50.928;6.376;2022-10-17T07:11:08;17.40;99.90
16477;DHT22;8349;50.928;6.376;2022-10-17T07:13:35;17.50;99.90
16477;DHT22;8349;50.928;6.376;2022-10-17T07:16:02;17.60;99.90
16477;DHT22;8349;50.928;6.376;2022-10-17T07:18:31;17.70;99.90
16477;DHT22;8349;50.928;6.376;2022-10-17T07:20:58;17.70;99.90
16477;DHT22;8349;50.928;6.376;2022-10-17T07:23:25;17.80;99.90
16477;DHT22;8349;50.928;6.376;2022-10-17T07:25:57;17.80;99.90
16477;DHT22;8349;50.928;6.376;2022-10-17T07:28:26;17.90;99.90
16477;DHT22;8349;50.928;6.376;2022-10-17T07:30:54;17.90;99.90
16477;DHT22;8349;50.928;6.376;2022-10-17T07:33:21;18.00;99.90
16477;DHT22;8349;50.928;6.376;2022-10-17T07:35:48;18.10;99.90
16477;DHT22;8349;50.928;6.376;2022-10-17T07:38:16;18.20;99.90
16477;DHT22;8349;50.928;6.376;2022-10-17T07:40:43;18.20;99.90
16477;DHT22;8349;50.928;6.376;2022-10-17T07:43:10;18.20;99.90
16477;DHT22;8349;50.928;6.376;2022-10-17T07:45:38;18.30;99.90
16477;DHT22;8349;50.928;6.376;2022-10-17T07:48:06;18.30;99.90
16477;DHT22;8349;50.928;6.376;2022-10-17T07:50:32;18.40;99.90
16477;DHT22;8349;50.928;6.376;2022-10-17T07:52:59;18.50;99.90
16477;DHT22;8349;50.928;6.376;2022-10-17T07:55:26;18.60;99.90
16477;DHT22;8349;50.928;6.376;2022-10-17T07:57:53;18.70;99.90
16477;DHT22;8349;50.928;6.376;2022-10-17T08:00:19;18.70;99.90
16477;DHT22;8349;50.928;6.376;2022-10-17T08:02:48;18.80;99.90
16477;DHT22;8349;50.928;6.376;2022-10-17T08:05:14;18.90;99.90
16477;DHT22;8349;50.928;6.376;2022-10-17T08:07:41;19.00;99.90
16477;DHT22;8349;50.928;6.376;2022-10-17T08:10:08;19.20;99.90
16477;DHT22;8349;50.928;6.376;2022-10-17T08:12:36;19.30;99.90
16477;DHT22;8349;50.928;6.376;2022-10-17T08:15:04;19.40;99.90
16477;DHT22;8349;50.928;6.376;2022-10-17T08:17:32;19.50;99.90
16477;DHT22;8349;50.928;6.376;2022-10-17T08:20:01;19.60;99.90
16477;DHT22;8349;50.928;6.376;2022-10-17T08:22:27;19.70;99.90
16477;DHT22;8349;50.928;6.376;2022-10-17T08:24:54;19.80;99.90
16477;DHT22;8349;50.928;6.376;2022-10-17T08:27:21;19.80;99.90
16477;DHT22;8349;50.928;6.376;2022-10-17T08:29:49;19.80;99.90
16477;DHT22;8349;50.928;6.376;2022-10-17T08:32:17;19.80;99.90
16477;DHT22;8349;50.928;6.376;2022-10-17T08:34:45;19.80;99.90
16477;DHT22;8349;50.928;6.376;2022-10-17T08:37:13;19.90;99.90
16477;DHT22;8349;50.928;6.376;2022-10-17T08:39:40;19.90;99.90
16477;DHT22;8349;50.928;6.376;2022-10-17T08:42:18;20.00;99.90
16477;DHT22;8349;50.928;6.376;2022-10-17T08:44:52;20.10;99.90
16477;DHT22;8349;50.928;6.376;2022-10-17T08:47:21;20.20;99.90
16477;DHT22;8349;50.928;6.376;2022-10-17T08:49:50;20.30;99.90
16477;DHT22;8349;50.928;6.376;2022-10-17T08:52:22;20.40;99.90
16477;DHT22;8349;50.928;6.376;2022-10-17T08:54:51;20.40;99.90
16477;DHT22;8349;50.928;6.376;2022-10-17T08:57:18;20.50;99.90
16477;DHT22;8349;50.928;6.376;2022-10-17T08:59:48;20.50;99.90
16477;DHT22;8349;50.928;6.376;2022-10-17T09:02:21;20.60;99.90
16477;DHT22;8349;50.928;6.376;2022-10-17T09:04:55;20.60;99.90
16477;DHT22;8349;50.928;6.376;2022-10-17T09:07:29;20.60;99.90
16477;DHT22;8349;50.928;6.376;2022-10-17T09:09:58;20.50;99.90
16477;DHT22;8349;50.928;6.376;2022-10-17T09:12:29;20.40;99.90
16477;DHT22;8349;50.928;6.376;2022-10-17T09:15:02;20.40;99.90
16477;DHT22;8349;50.928;6.376;2022-10-17T09:17:32;20.30;99.90
16477;DHT22;8349;50.928;6.376;2022-10-17T09:20:03;20.30;99.90
16477;DHT22;8349;50.928;6.376;2022-10-17T09:22:33;20.30;99.90
16477;DHT22;8349;50.928;6.376;2022-10-17T09:25:03;20.30;99.90
16477;DHT22;8349;50.928;6.376;2022-10-17T09:27:33;20.40;99.90
16477;DHT22;8349;50.928;6.376;2022-10-17T09:30:05;20.40;99.90
16477;DHT22;8349;50.928;6.376;2022-10-17T09:32:39;20.40;99.90
16477;DHT22;8349;50.928;6.376;2022-10-17T09:35:09;20.50;99.90
16477;DHT22;8349;50.928;6.376;2022-10-17T09:37:39;20.50;99.90
16477;DHT22;8349;50.928;6.376;2022-10-17T09:40:06;20.50;99.90
16477;DHT22;8349;50.928;6.376;2022-10-17T09:42:38;20.50;99.90
16477;DHT22;8349;50.928;6.376;2022-10-17T09:45:12;20.40;99.90
16477;DHT22;8349;50.928;6.376;2022-10-17T09:47:41;20.40;99.90
16477;DHT22;8349;50.928;6.376;2022-10-17T09:50:13;20.40;99.90
16477;DHT22;8349;50.928;6.376;2022-10-17T09:52:42;20.40;99.90
16477;DHT22;8349;50.928;6.376;2022-10-17T09:55:14;20.30;99.90
16477;DHT22;8349;50.928;6.376;2022-10-17T09:57:53;20.30;99.90
16477;DHT22;8349;50.928;6.376;2022-10-17T10:00:20;20.30;99.90
16477;DHT22;8349;50.928;6.376;2022-10-17T10:02:47;20.40;99.90
16477;DHT22;8349;50.928;6.376;2022-10-17T10:05:15;20.30;99.90
16477;DHT22;8349;50.928;6.376;2022-10-17T10:07:44;20.30;99.90
16477;DHT22;8349;50.928;6.376;2022-10-17T10:10:22;20.30;99.90
16477;DHT22;8349;50.928;6.376;2022-10-17T10:13:00;20.30;99.90
16477;DHT22;8349;50.928;6.376;2022-10-17T10:15:34;20.20;99.90
16477;DHT22;8349;50.928;6.376;2022-10-17T10:18:02;20.30;99.90
16477;DHT22;8349;50.928;6.376;2022-10-17T10:20:30;20.30;99.90
16477;DHT22;8349;50.928;6.376;2022-10-17T10:23:06;20.30;99.90
16477;DHT22;8349;50.928;6.376;2022-10-17T10:25:33;20.30;99.90
16477;DHT22;8349;50.928;6.376;2022-10-17T10:28:00;20.30;99.90
16477;DHT22;8349;50.928;6.376;2022-10-17T10:30:29;20.30;99.90
16477;DHT22;8349;50.928;6.376;2022-10-17T10:32:56;20.30;99.90
16477;DHT22;8349;50.928;6.376;2022-10-17T10:35:27;20.30;99.90
16477;DHT22;8349;50.928;6.376;2022-10-17T10:37:56;20.30;99.90
16477;DHT22;8349;50.928;6.376;2022-10-17T10:40:26;20.30;99.90
16477;DHT22;8349;50.928;6.376;2022-10-17T10:42:55;20.30;99.90
16477;DHT22;8349;50.928;6.376;2022-10-17T10:45:23;20.40;99.90
16477;DHT22;8349;50.928;6.376;2022-10-17T10:47:51;20.40;99.90
16477;DHT22;8349;50.928;6.376;2022-10-17T10:50:23;20.40;99.90
16477;DHT22;8349;50.928;6.376;2022-10-17T10:52:52;20.40;99.90
16477;DHT22;8349;50.928;6.376;2022-10-17T10:55:22;20.40;99.90
16477;DHT22;8349;50.928;6.376;2022-10-17T10:57:52;20.40;99.90
16477;DHT22;8349;50.928;6.376;2022-10-17T11:00:21;20.40;99.90
16477;DHT22;8349;50.928;6.376;2022-10-17T11:02:52;20.40;99.90
16477;DHT22;8349;50.928;6.376;2022-10-17T11:05:21;20.50;99.90
16477;DHT22;8349;50.928;6.376;2022-10-17T11:07:50;20.60;99.90
16477;DHT22;8349;50.928;6.376;2022-10-17T11:10:22;20.60;99.90
16477;DHT22;8349;50.928;6.376;2022-10-17T11:12:53;20.60;99.90
16477;DHT22;8349;50.928;6.376;2022-10-17T11:15:24;20.70;99.90
16477;DHT22;8349;50.928;6.376;2022-10-17T11:17:54;20.80;99.90
16477;DHT22;8349;50.928;6.376;2022-10-17T11:20:26;20.90;99.90
16477;DHT22;8349;50.928;6.376;2022-10-17T11:22:55;21.00;99.90
16477;DHT22;8349;50.928;6.376;2022-10-17T11:25:30;21.00;99.90
16477;DHT22;8349;50.928;6.376;2022-10-17T11:27:58;21.10;99.90
16477;DHT22;8349;50.928;6.376;2022-10-17T11:30:26;21.20;99.90
16477;DHT22;8349;50.928;6.376;2022-10-17T11:32:54;21.20;99.90
16477;DHT22;8349;50.928;6.376;2022-10-17T11:35:22;21.10;99.90
16477;DHT22;8349;50.928;6.376;2022-10-17T11:37:52;21.10;99.90
16477;DHT22;8349;50.928;6.376;2022-10-17T11:40:21;21.10;99.90
16477;DHT22;8349;50.928;6.376;2022-10-17T11:42:51;21.00;99.90
16477;DHT22;8349;50.928;6.376;2022-10-17T11:45:22;21.00;99.90
16477;DHT22;8349;50.928;6.376;2022-10-17T11:47:51;21.00;99.90
16477;DHT22;8349;50.928;6.376;2022-10-17T11:50:21;21.00;99.90
16477;DHT22;8349;50.928;6.376;2022-10-17T11:52:50;21.00;99.90
16477;DHT22;8349;50.928;6.376;2022-10-17T11:55:20;21.00;99.90
16477;DHT22;8349;50.928;6.376;2022-10-17T11:57:53;21.00;99.90
16477;DHT22;8349;50.928;6.376;2022-10-17T12:00:25;21.10;99.90
16477;DHT22;8349;50.928;6.376;2022-10-17T12:02:59;21.30;99.90
16477;DHT22;8349;50.928;6.376;2022-10-17T12:05:31;21.30;99.90
16477;DHT22;8349;50.928;6.376;2022-10-17T12:08:00;21.20;99.90
16477;DHT22;8349;50.928;6.376;2022-10-17T12:10:31;21.20;99.90
16477;DHT22;8349;50.928;6.376;2022-10-17T12:15:43;21.20;99.90
16477;DHT22;8349;50.928;6.376;2022-10-17T12:18:14;21.30;99.90
16477;DHT22;8349;50.928;6.376;2022-10-17T12:20:41;21.20;99.90
16477;DHT22;8349;50.928;6.376;2022-10-17T12:25:53;21.20;99.90
16477;DHT22;8349;50.928;6.376;2022-10-17T12:28:26;21.10;99.90
16477;DHT22;8349;50.928;6.376;2022-10-17T12:30:56;21.10;99.90
16477;DHT22;8349;50.928;6.376;2022-10-17T12:33:33;21.10;99.90
16477;DHT22;8349;50.928;6.376;2022-10-17T12:38:46;21.10;99.90
16477;DHT22;8349;50.928;6.376;2022-10-17T12:41:14;21.10;99.90
16477;DHT22;8349;50.928;6.376;2022-10-17T12:49:16;21.10;99.90
16477;DHT22;8349;50.928;6.376;2022-10-17T12:54:31;21.20;99.90
16477;DHT22;8349;50.928;6.376;2022-10-17T12:57:08;21.30;99.90
16477;DHT22;8349;50.928;6.376;2022-10-17T12:59:39;21.30;99.90
16477;DHT22;8349;50.928;6.376;2022-10-17T13:02:08;21.20;99.90
16477;DHT22;8349;50.928;6.376;2022-10-17T13:04:41;21.10;99.90
16477;DHT22;8349;50.928;6.376;2022-10-17T13:07:11;21.10;99.90
16477;DHT22;8349;50.928;6.376;2022-10-17T13:09:41;21.00;99.90
16477;DHT22;8349;50.928;6.376;2022-10-17T13:12:10;21.00;99.90
16477;DHT22;8349;50.928;6.376;2022-10-17T13:14:38;20.90;99.90
16477;DHT22;8349;50.928;6.376;2022-10-17T13:17:09;20.90;99.90
16477;DHT22;8349;50.928;6.376;2022-10-17T13:19:46;20.90;99.90
16477;DHT22;8349;50.928;6.376;2022-10-17T13:22:14;20.90;99.90
16477;DHT22;8349;50.928;6.376;2022-10-17T13:24:42;20.90;99.90
16477;DHT22;8349;50.928;6.376;2022-10-17T13:27:21;20.90;99.90
16477;DHT22;8349;50.928;6.376;2022-10-17T13:29:48;20.90;99.90
16477;DHT22;8349;50.928;6.376;2022-10-17T13:32:14;20.90;99.90
16477;DHT22;8349;50.928;6.376;2022-10-17T13:34:41;20.90;99.90
16477;DHT22;8349;50.928;6.376;2022-10-17T13:37:11;20.90;99.90
16477;DHT22;8349;50.928;6.376;2022-10-17T13:39:39;20.90;99.90
16477;DHT22;8349;50.928;6.376;2022-10-17T13:42:13;20.90;99.90
16477;DHT22;8349;50.928;6.376;2022-10-17T13:44:42;20.90;99.90
16477;DHT22;8349;50.928;6.376;2022-10-17T13:47:18;20.90;99.90
16477;DHT22;8349;50.928;6.376;2022-10-17T13:49:45;20.90;99.90
16477;DHT22;8349;50.928;6.376;2022-10-17T13:52:15;20.90;99.90
16477;DHT22;8349;50.928;6.376;2022-10-17T13:54:44;20.90;99.90
16477;DHT22;8349;50.928;6.376;2022-10-17T13:57:18;20.90;99.90
16477;DHT22;8349;50.928;6.376;2022-10-17T13:59:46;20.80;99.90
16477;DHT22;8349;50.928;6.376;2022-10-17T14:02:15;20.80;99.90
16477;DHT22;8349;50.928;6.376;2022-10-17T14:04:42;20.80;99.90
16477;DHT22;8349;50.928;6.376;2022-10-17T14:07:20;20.90;99.90
16477;DHT22;8349;50.928;6.376;2022-10-17T14:09:49;20.90;99.90
16477;DHT22;8349;50.928;6.376;2022-10-17T14:12:15;20.80;99.90
16477;DHT22;8349;50.928;6.376;2022-10-17T14:14:45;20.80;99.90
16477;DHT22;8349;50.928;6.376;2022-10-17T14:17:13;20.80;99.90
16477;DHT22;8349;50.928;6.376;2022-10-17T14:19:40;20.80;99.90
16477;DHT22;8349;50.928;6.376;2022-10-17T14:22:15;20.70;99.90
16477;DHT22;8349;50.928;6.376;2022-10-17T14:24:44;20.70;99.90
16477;DHT22;8349;50.928;6.376;2022-10-17T14:27:25;20.70;99.90
16477;DHT22;8349;50.928;6.376;2022-10-17T14:29:53;20.70;99.90
16477;DHT22;8349;50.928;6.376;2022-10-17T14:32:20;20.70;99.90
16477;DHT22;8349;50.928;6.376;2022-10-17T14:34:50;20.60;99.90
16477;DHT22;8349;50.928;6.376;2022-10-17T14:37:23;20.60;99.90
16477;DHT22;8349;50.928;6.376;2022-10-17T14:39:54;20.50;99.90
16477;DHT22;8349;50.928;6.376;2022-10-17T14:42:24;20.50;99.90
16477;DHT22;8349;50.928;6.376;2022-10-17T14:44:51;20.40;99.90
16477;DHT22;8349;50.928;6.376;2022-10-17T14:47:20;20.40;99.90
16477;DHT22;8349;50.928;6.376;2022-10-17T14:49:48;20.40;99.90
16477;DHT22;8349;50.928;6.376;2022-10-17T14:52:25;20.40;99.90
16477;DHT22;8349;50.928;6.376;2022-10-17T14:54:52;20.40;99.90
16477;DHT22;8349;50.928;6.376;2022-10-17T14:57:23;20.30;99.90
16477;DHT22;8349;50.928;6.376;2022-10-17T14:59:50;20.30;99.90
16477;DHT22;8349;50.928;6.376;2022-10-17T15:02:17;20.30;99.90
16477;DHT22;8349;50.928;6.376;2022-10-17T15:04:43;20.30;99.90
16477;DHT22;8349;50.928;6.376;2022-10-17T15:07:11;20.30;99.90
16477;DHT22;8349;50.928;6.376;2022-10-17T15:09:39;20.30;99.90
16477;DHT22;8349;50.928;6.376;2022-10-17T15:12:06;20.20;99.90
16477;DHT22;8349;50.928;6.376;2022-10-17T15:14:38;20.20;99.90
16477;DHT22;8349;50.928;6.376;2022-10-17T15:17:08;20.20;99.90
16477;DHT22;8349;50.928;6.376;2022-10-17T15:19:35;20.10;99.90
16477;DHT22;8349;50.928;6.376;2022-10-17T15:22:02;20.00;99.90
16477;DHT22;8349;50.928;6.376;2022-10-17T15:24:29;19.90;99.90
16477;DHT22;8349;50.928;6.376;2022-10-17T15:26:56;19.80;99.90
16477;DHT22;8349;50.928;6.376;2022-10-17T15:29:22;19.70;99.90
16477;DHT22;8349;50.928;6.376;2022-10-17T15:31:51;19.60;99.90
16477;DHT22;8349;50.928;6.376;2022-10-17T15:34:18;19.50;99.90
16477;DHT22;8349;50.928;6.376;2022-10-17T15:36:47;19.40;99.90
16477;DHT22;8349;50.928;6.376;2022-10-17T15:39:14;19.30;99.90
16477;DHT22;8349;50.928;6.376;2022-10-17T15:41:41;19.20;99.90
16477;DHT22;8349;50.928;6.376;2022-10-17T15:44:08;19.10;99.90
16477;DHT22;8349;50.928;6.376;2022-10-17T15:46:35;19.00;99.90
16477;DHT22;8349;50.928;6.376;2022-10-17T15:49:07;19.00;99.90
16477;DHT22;8349;50.928;6.376;2022-10-17T15:51:35;18.90;99.90
16477;DHT22;8349;50.928;6.376;2022-10-17T15:54:02;18.80;99.90
16477;DHT22;8349;50.928;6.376;2022-10-17T15:56:31;18.80;99.90
16477;DHT22;8349;50.928;6.376;2022-10-17T15:59:00;18.70;99.90
16477;DHT22;8349;50.928;6.376;2022-10-17T16:01:28;18.60;99.90
16477;DHT22;8349;50.928;6.376;2022-10-17T16:03:55;18.50;99.90
16477;DHT22;8349;50.928;6.376;2022-10-17T16:06:24;18.40;99.90
16477;DHT22;8349;50.928;6.376;2022-10-17T16:08:51;18.30;99.90
16477;DHT22;8349;50.928;6.376;2022-10-17T16:11:18;18.30;99.90
16477;DHT22;8349;50.928;6.376;2022-10-17T16:13:48;18.20;99.90
16477;DHT22;8349;50.928;6.376;2022-10-17T16:16:16;18.10;99.90
16477;DHT22;8349;50.928;6.376;2022-10-17T16:18:43;18.00;99.90
16477;DHT22;8349;50.928;6.376;2022-10-17T16:21:10;18.00;99.90
16477;DHT22;8349;50.928;6.376;2022-10-17T16:23:39;17.90;99.90
16477;DHT22;8349;50.928;6.376;2022-10-17T16:26:06;17.90;99.90
16477;DHT22;8349;50.928;6.376;2022-10-17T16:28:33;17.80;99.90
16477;DHT22;8349;50.928;6.376;2022-10-17T16:31:00;17.80;99.90
16477;DHT22;8349;50.928;6.376;2022-10-17T16:33:27;17.80;99.90
16477;DHT22;8349;50.928;6.376;2022-10-17T16:35:55;17.70;99.90
16477;DHT22;8349;50.928;6.376;2022-10-17T16:38:22;17.60;99.90
16477;DHT22;8349;50.928;6.376;2022-10-17T16:40:50;17.60;99.90
16477;DHT22;8349;50.928;6.376;2022-10-17T16:43:17;17.50;99.90
16477;DHT22;8349;50.928;6.376;2022-10-17T16:45:44;17.50;99.90
16477;DHT22;8349;50.928;6.376;2022-10-17T16:48:10;17.50;99.90
16477;DHT22;8349;50.928;6.376;2022-10-17T16:50:38;17.50;99.90
16477;DHT22;8349;50.928;6.376;2022-10-17T16:53:04;17.50;99.90
16477;DHT22;8349;50.928;6.376;2022-10-17T16:55:31;17.50;99.90
16477;DHT22;8349;50.928;6.376;2022-10-17T16:57:59;17.40;99.90
16477;DHT22;8349;50.928;6.376;2022-10-17T17:00:26;17.40;99.90
16477;DHT22;8349;50.928;6.376;2022-10-17T17:02:53;17.40;99.90
16477;DHT22;8349;50.928;6.376;2022-10-17T17:05:20;17.40;99.90
16477;DHT22;8349;50.928;6.376;2022-10-17T17:07:47;17.40;99.90
16477;DHT22;8349;50.928;6.376;2022-10-17T17:10:14;17.40;99.90
16477;DHT22;8349;50.928;6.376;2022-10-17T17:12:40;17.30;99.90
16477;DHT22;8349;50.928;6.376;2022-10-17T17:15:09;17.30;99.90
16477;DHT22;8349;50.928;6.376;2022-10-17T17:17:35;17.30;99.90
16477;DHT22;8349;50.928;6.376;2022-10-17T17:20:02;17.20;99.90
16477;DHT22;8349;50.928;6.376;2022-10-17T17:22:29;17.30;99.90
16477;DHT22;8349;50.928;6.376;2022-10-17T17:24:56;17.20;99.90
16477;DHT22;8349;50.928;6.376;2022-10-17T17:27:23;17.20;99.90
16477;DHT22;8349;50.928;6.376;2022-10-17T17:29:52;17.20;99.90
16477;DHT22;8349;50.928;6.376;2022-10-17T17:32:20;17.20;99.90
16477;DHT22;8349;50.928;6.376;2022-10-17T17:34:47;17.20;99.90
16477;DHT22;8349;50.928;6.376;2022-10-17T17:37:14;17.20;99.90
16477;DHT22;8349;50.928;6.376;2022-10-17T17:39:41;17.20;99.90
16477;DHT22;8349;50.928;6.376;2022-10-17T17:42:08;17.20;99.90
16477;DHT22;8349;50.928;6.376;2022-10-17T17:44:35;17.20;99.90
16477;DHT22;8349;50.928;6.376;2022-10-17T17:47:02;17.10;99.90
16477;DHT22;8349;50.928;6.376;2022-10-17T17:49:30;17.10;99.90
16477;DHT22;8349;50.928;6.376;2022-10-17T17:51:57;17.10;99.90
16477;DHT22;8349;50.928;6.376;2022-10-17T17:54:24;17.00;99.90
16477;DHT22;8349;50.928;6.376;2022-10-17T17:56:51;17.00;99.90
16477;DHT22;8349;50.928;6.376;2022-10-17T17:59:17;17.00;99.90
16477;DHT22;8349;50.928;6.376;2022-10-17T18:01:44;17.00;99.90
16477;DHT22;8349;50.928;6.376;2022-10-17T18:04:11;16.90;99.90
16477;DHT22;8349;50.928;6.376;2022-10-17T18:06:41;16.90;99.90
16477;DHT22;8349;50.928;6.376;2022-10-17T18:09:08;16.90;99.90
16477;DHT22;8349;50.928;6.376;2022-10-17T18:11:35;16.80;99.90
16477;DHT22;8349;50.928;6.376;2022-10-17T18:14:02;16.70;99.90
16477;DHT22;8349;50.928;6.376;2022-10-17T18:16:29;16.70;99.90
16477;DHT22;8349;50.928;6.376;2022-10-17T18:18:56;16.70;99.90
16477;DHT22;8349;50.928;6.376;2022-10-17T18:21:24;16.60;99.90
16477;DHT22;8349;50.928;6.376;2022-10-17T18:23:52;16.60;99.90
16477;DHT22;8349;50.928;6.376;2022-10-17T18:26:19;16.50;99.90
16477;DHT22;8349;50.928;6.376;2022-10-17T18:28:46;16.50;99.90
16477;DHT22;8349;50.928;6.376;2022-10-17T18:31:14;16.50;99.90
16477;DHT22;8349;50.928;6.376;2022-10-17T18:33:43;16.50;99.90
16477;DHT22;8349;50.928;6.376;2022-10-17T18:36:11;16.40;99.90
16477;DHT22;8349;50.928;6.376;2022-10-17T18:38:38;16.40;99.90
16477;DHT22;8349;50.928;6.376;2022-10-17T18:41:07;16.30;99.90
16477;DHT22;8349;50.928;6.376;2022-10-17T18:43:34;16.30;99.90
16477;DHT22;8349;50.928;6.376;2022-10-17T18:46:02;16.30;99.90
16477;DHT22;8349;50.928;6.376;2022-10-17T18:48:29;16.20;99.90
16477;DHT22;8349;50.928;6.376;2022-10-17T18:50:56;16.20;99.90
16477;DHT22;8349;50.928;6.376;2022-10-17T18:53:23;16.20;99.90
16477;DHT22;8349;50.928;6.376;2022-10-17T18:55:50;16.20;99.90
16477;DHT22;8349;50.928;6.376;2022-10-17T18:58:18;16.20;99.90
16477;DHT22;8349;50.928;6.376;2022-10-17T19:00:46;16.20;99.90
16477;DHT22;8349;50.928;6.376;2022-10-17T19:03:13;16.20;99.90
16477;DHT22;8349;50.928;6.376;2022-10-17T19:05:39;16.20;99.90
16477;DHT22;8349;50.928;6.376;2022-10-17T19:08:09;16.10;99.90
16477;DHT22;8349;50.928;6.376;2022-10-17T19:10:36;16.10;99.90
16477;DHT22;8349;50.928;6.376;2022-10-17T19:13:03;16.10;99.90
16477;DHT22;8349;50.928;6.376;2022-10-17T19:15:31;16.00;99.90